sensor_id;sensor_type;location;lat;lon;timestamp;pressure;altitude;pressure_sealevel;temperature;humidity
71938;BME280;59810;48.800;9.086;2023-08-06T20:24:49;97360.81;;;12.62;81.65
71938;BME280;59810;48.800;9.086;2023-08-06T20:27:15;97369.50;;;12.59;81.94
71938;BME280;59810;48.800;9.086;2023-08-06T20:29:40;97373.81;;;12.50;83.42
71938;BME280;59810;48.800;9.086;2023-08-06T20:32:05;97368.94;;;12.37;85.03
71938;BME280;59810;48.800;9.086;2023-08-06T20:34:31;97365.63;;;12.25;86.50
71938;BME280;59810;48.800;9.086;2023-08-06T20:36:56;97375.34;;;12.10;88.50
71938;BME280;59810;48.800;9.086;2023-08-06T20:39:23;97380.16;;;11.98;89.75
71938;BME280;59810;48.800;9.086;2023-08-06T20:41:48;97395.28;;;11.94;91.02
71938;BME280;59810;48.800;9.086;2023-08-06T20:44:14;97386.09;;;11.90;92.18
71938;BME280;59810;48.800;9.086;2023-08-06T20:46:39;97392.53;;;11.79;92.86
71938;BME280;59810;48.800;9.086;2023-08-06T20:49:04;97393.56;;;11.73;93.92
71938;BME280;59810;48.800;9.086;2023-08-06T20:51:30;97387.59;;;11.71;94.41
71938;BME280;59810;48.800;9.086;2023-08-06T20:53:55;97388.66;;;11.70;92.44
71938;BME280;59810;48.800;9.086;2023-08-06T20:56:20;97395.41;;;11.67;93.36
71938;BME280;59810;48.800;9.086;2023-08-06T20:58:46;97388.38;;;11.66;93.14
71938;BME280;59810;48.800;9.086;2023-08-06T21:01:11;97387.00;;;11.64;93.75
71938;BME280;59810;48.800;9.086;2023-08-06T21:03:36;97393.75;;;11.61;95.05
71938;BME280;59810;48.800;9.086;2023-08-06T21:06:04;97385.88;;;11.54;95.38
71938;BME280;59810;48.800;9.086;2023-08-06T21:08:30;97392.88;;;11.45;97.53
71938;BME280;59810;48.800;9.086;2023-08-06T21:10:57;97392.03;;;11.40;97.50
71938;BME280;59810;48.800;9.086;2023-08-06T21:13:25;97395.00;;;11.38;96.95
71938;BME280;59810;48.800;9.086;2023-08-06T21:16:01;97406.28;;;11.35;98.49
71938;BME280;59810;48.800;9.086;2023-08-06T21:18:31;97408.50;;;11.38;96.01
71938;BME280;59810;48.800;9.086;2023-08-06T21:20:57;97414.47;;;11.40;96.94
71938;BME280;59810;48.800;9.086;2023-08-06T21:23:24;97408.50;;;11.38;97.80
71938;BME280;59810;48.800;9.086;2023-08-06T21:25:58;97413.28;;;11.31;98.17
71938;BME280;59810;48.800;9.086;2023-08-06T21:28:27;97416.53;;;11.28;98.44
71938;BME280;59810;48.800;9.086;2023-08-06T21:30:57;97414.91;;;11.27;98.33
71938;BME280;59810;48.800;9.086;2023-08-06T21:33:27;97417.59;;;11.27;99.51
71938;BME280;59810;48.800;9.086;2023-08-06T21:35:54;97424.34;;;11.25;100.00
71938;BME280;59810;48.800;9.086;2023-08-06T21:38:23;97428.38;;;11.22;100.00
71938;BME280;59810;48.800;9.086;2023-08-06T21:40:48;97420.81;;;11.24;99.00
71938;BME280;59810;48.800;9.086;2023-08-06T21:43:13;97419.19;;;11.23;98.04
71938;BME280;59810;48.800;9.086;2023-08-06T21:45:39;97427.56;;;11.21;99.51
71938;BME280;59810;48.800;9.086;2023-08-06T21:48:04;97428.38;;;11.22;98.15
71938;BME280;59810;48.800;9.086;2023-08-06T21:50:29;97436.78;;;11.26;98.14
71938;BME280;59810;48.800;9.086;2023-08-06T21:52:55;97426.78;;;11.26;97.42
71938;BME280;59810;48.800;9.086;2023-08-06T21:55:21;97431.09;;;11.27;97.44
71938;BME280;59810;48.800;9.086;2023-08-06T21:57:48;97438.41;;;11.27;97.77
71938;BME280;59810;48.800;9.086;2023-08-06T22:00:14;97428.94;;;11.24;98.10
71938;BME280;59810;48.800;9.086;2023-08-06T22:02:41;97431.66;;;11.29;97.09
71938;BME280;59810;48.800;9.086;2023-08-06T22:05:07;97434.63;;;11.28;96.94
71938;BME280;59810;48.800;9.086;2023-08-06T22:07:33;97436.50;;;11.27;97.50
71938;BME280;59810;48.800;9.086;2023-08-06T22:09:58;97434.63;;;11.28;97.58
71938;BME280;59810;48.800;9.086;2023-08-06T22:12:23;97433.03;;;11.32;96.80
71938;BME280;59810;48.800;9.086;2023-08-06T22:14:48;97423.00;;;11.27;97.23
71938;BME280;59810;48.800;9.086;2023-08-06T22:17:14;97423.28;;;11.31;97.38
71938;BME280;59810;48.800;9.086;2023-08-06T22:19:39;97427.88;;;11.30;96.78
71938;BME280;59810;48.800;9.086;2023-08-06T22:22:05;97428.16;;;11.29;98.36
71938;BME280;59810;48.800;9.086;2023-08-06T22:24:30;97427.88;;;11.30;98.34
71938;BME280;59810;48.800;9.086;2023-08-06T22:26:56;97426.25;;;11.29;96.45
71938;BME280;59810;48.800;9.086;2023-08-06T22:29:21;97436.53;;;11.32;96.80
71938;BME280;59810;48.800;9.086;2023-08-06T22:31:46;97441.44;;;11.35;95.92
71938;BME280;59810;48.800;9.086;2023-08-06T22:34:12;97435.47;;;11.33;97.67
71938;BME280;59810;48.800;9.086;2023-08-06T22:36:37;97436.50;;;11.27;97.14
71938;BME280;59810;48.800;9.086;2023-08-06T22:39:02;97437.63;;;11.31;97.07
71938;BME280;59810;48.800;9.086;2023-08-06T22:41:28;97429.75;;;11.25;97.70
71938;BME280;59810;48.800;9.086;2023-08-06T22:43:53;97438.66;;;11.25;97.67
71938;BME280;59810;48.800;9.086;2023-08-06T22:46:18;97431.06;;;11.22;97.42
71938;BME280;59810;48.800;9.086;2023-08-06T22:48:44;97431.38;;;11.26;97.16
71938;BME280;59810;48.800;9.086;2023-08-06T22:51:09;97438.63;;;11.20;98.08
71938;BME280;59810;48.800;9.086;2023-08-06T22:53:34;97444.28;;;11.18;99.22
71938;BME280;59810;48.800;9.086;2023-08-06T22:56:00;97433.47;;;11.18;98.83
71938;BME280;59810;48.800;9.086;2023-08-06T22:58:25;97431.34;;;11.20;97.89
71938;BME280;59810;48.800;9.086;2023-08-06T23:00:50;97437.81;;;11.19;97.80
71938;BME280;59810;48.800;9.086;2023-08-06T23:03:16;97448.06;;;11.17;98.09
71938;BME280;59810;48.800;9.086;2023-08-06T23:05:41;97440.22;;;11.16;98.59
71938;BME280;59810;48.800;9.086;2023-08-06T23:08:06;97447.81;;;11.19;98.74
71938;BME280;59810;48.800;9.086;2023-08-06T23:10:32;97442.63;;;11.12;99.47
71938;BME280;59810;48.800;9.086;2023-08-06T23:12:58;97450.47;;;11.14;99.14
71938;BME280;59810;48.800;9.086;2023-08-06T23:15:23;97448.84;;;11.13;98.51
71938;BME280;59810;48.800;9.086;2023-08-06T23:17:49;97454.25;;;11.13;98.11
71938;BME280;59810;48.800;9.086;2023-08-06T23:20:14;97453.16;;;11.14;98.07
71938;BME280;59810;48.800;9.086;2023-08-06T23:22:39;97457.00;;;11.18;98.36
71938;BME280;59810;48.800;9.086;2023-08-06T23:25:06;97455.91;;;11.19;98.08
71938;BME280;59810;48.800;9.086;2023-08-06T23:27:32;97462.38;;;11.18;97.90
71938;BME280;59810;48.800;9.086;2023-08-06T23:29:57;97467.25;;;11.16;98.83
71938;BME280;59810;48.800;9.086;2023-08-06T23:32:22;97462.91;;;11.15;97.80
71938;BME280;59810;48.800;9.086;2023-08-06T23:34:48;97452.41;;;11.18;97.27
71938;BME280;59810;48.800;9.086;2023-08-06T23:37:13;97461.31;;;11.19;97.15
71938;BME280;59810;48.800;9.086;2023-08-06T23:39:38;97461.31;;;11.19;97.70
71938;BME280;59810;48.800;9.086;2023-08-06T23:42:04;97461.28;;;11.14;97.39
71938;BME280;59810;48.800;9.086;2023-08-06T23:44:29;97466.16;;;11.17;95.41
71938;BME280;59810;48.800;9.086;2023-08-06T23:50:17;97471.56;;;11.17;94.08
71938;BME280;59810;48.800;9.086;2023-08-06T23:52:42;97474.00;;;11.18;94.07
71938;BME280;59810;48.800;9.086;2023-08-06T23:55:08;97478.59;;;11.18;93.57
71938;BME280;59810;48.800;9.086;2023-08-06T23:57:33;97467.78;;;11.18;93.64
71938;BME280;59810;48.800;9.086;2023-08-06T23:59:59;97484.53;;;11.15;93.56
